Time;durP1;ratioP1;P1;durP2;ratioP2;P2;SDS_P1;SDS_P2;PMS_P1;PMS_P2;Temp;Humidity;BMP_temperature;BMP_pressure;BME280_temperature;BME280_humidity;BME280_pressure;Samples;Min_cycle;Max_cycle;Signal;HPM_P1;HPM_P2
2021/06/08 00:00:26;;;;;;;7.60;6.10;;;;;;;12.51;66.87;100683.47;102378;1118;82156;-59
2021/06/08 00:02:54;;;;;;;9.30;6.00;;;;;;;12.43;66.98;100682.58;102377;1118;64887;-68
2021/06/08 00:05:01;;;;;;;10.20;5.80;;;;;;;12.38;66.77;100679.63;102375;1118;69368;-69
2021/06/08 00:07:08;;;;;;;7.30;5.60;;;;;;;12.37;66.80;100682.51;102363;1118;85431;-59
2021/06/08 00:09:16;;;;;;;9.70;6.60;;;;;;;12.36;67.01;100681.66;102395;1117;73638;-58
2021/06/08 00:11:23;;;;;;;8.60;6.10;;;;;;;12.34;66.88;100686.45;102412;1118;81403;-58
2021/06/08 00:13:30;;;;;;;7.70;5.00;;;;;;;12.32;67.09;100680.39;102384;1118;66010;-59
2021/06/08 00:15:40;;;;;;;7.20;5.60;;;;;;;12.29;67.09;100680.78;102431;1118;69441;-59
2021/06/08 00:17:47;;;;;;;7.80;5.60;;;;;;;12.28;67.37;100684.50;102375;1118;85153;-59
2021/06/08 00:19:54;;;;;;;7.50;5.70;;;;;;;12.24;67.26;100680.52;102384;1117;74704;-60
2021/06/08 00:22:05;;;;;;;8.00;6.10;;;;;;;12.21;67.42;100671.94;102439;1118;80508;-59
2021/06/08 00:24:12;;;;;;;9.40;6.30;;;;;;;12.18;67.54;100673.16;102408;1117;66068;-60
2021/06/08 00:26:19;;;;;;;10.10;6.40;;;;;;;12.14;67.83;100673.75;102399;1118;69100;-58
2021/06/08 00:28:29;;;;;;;8.50;5.70;;;;;;;12.10;67.72;100670.58;102410;1118;86231;-59
2021/06/08 00:30:37;;;;;;;9.60;6.30;;;;;;;12.05;67.75;100662.20;102373;1118;74848;-61
2021/06/08 00:32:45;;;;;;;7.40;5.30;;;;;;;12.02;67.94;100670.70;102397;1118;80487;-68
2021/06/08 00:34:52;;;;;;;9.00;5.50;;;;;;;12.00;67.83;100669.22;102406;1118;64999;-68
2021/06/08 00:37:03;;;;;;;6.70;5.50;;;;;;;11.98;67.83;100666.69;102361;1118;68859;-67
2021/06/08 00:39:10;;;;;;;8.30;5.90;;;;;;;11.97;68.07;100665.03;102407;1118;85109;-66
2021/06/08 00:41:19;;;;;;;6.30;5.60;;;;;;;11.93;67.98;100662.88;102417;1118;74831;-66
2021/06/08 00:43:30;;;;;;;8.30;6.30;;;;;;;11.86;68.11;100662.83;102376;1117;81664;-67
2021/06/08 00:45:38;;;;;;;7.70;6.00;;;;;;;11.81;68.33;100663.38;102373;1118;67525;-66
2021/06/08 00:47:45;;;;;;;7.60;5.90;;;;;;;11.84;68.38;100664.86;102419;1118;68252;-59
2021/06/08 00:49:52;;;;;;;10.20;6.20;;;;;;;11.83;68.40;100661.34;102382;1118;85231;-59
2021/06/08 00:52:03;;;;;;;7.10;6.30;;;;;;;11.78;68.50;100663.76;102377;1117;74921;-68
2021/06/08 00:54:11;;;;;;;7.80;6.00;;;;;;;11.73;68.56;100657.23;102384;1118;81126;-66
2021/06/08 00:56:18;;;;;;;7.60;6.80;;;;;;;11.71;68.55;100660.15;102419;1117;67009;-66
2021/06/08 00:58:28;;;;;;;8.00;6.80;;;;;;;11.70;68.63;100657.64;102390;1118;68570;-68
2021/06/08 01:00:36;;;;;;;8.70;6.40;;;;;;;11.69;68.66;100662.21;102416;1118;84279;-68
2021/06/08 01:02:46;;;;;;;8.80;7.10;;;;;;;11.66;68.71;100657.14;102417;1118;73509;-68
2021/06/08 01:04:53;;;;;;;9.30;7.60;;;;;;;11.67;69.04;100660.70;102555;1097;80639;-66
2021/06/08 01:07:01;;;;;;;9.30;6.60;;;;;;;11.64;68.96;100663.78;102375;1118;67660;-67
2021/06/08 01:09:09;;;;;;;7.40;6.40;;;;;;;11.59;68.99;100656.20;102410;1118;67737;-65
2021/06/08 01:11:16;;;;;;;8.60;6.90;;;;;;;11.58;68.92;100653.70;102424;1118;85188;-66
2021/06/08 01:13:29;;;;;;;9.40;6.90;;;;;;;11.55;69.19;100654.92;102384;1118;74685;-69
2021/06/08 01:15:36;;;;;;;9.10;8.20;;;;;;;11.48;69.36;100664.81;102384;1118;82412;-69
2021/06/08 01:17:46;;;;;;;8.50;7.10;;;;;;;11.43;69.55;100661.83;102377;1118;67759;-69
2021/06/08 01:19:59;;;;;;;9.00;8.10;;;;;;;11.37;69.35;100661.77;102387;1118;68303;-69
2021/06/08 01:22:07;;;;;;;10.20;7.30;;;;;;;11.30;69.74;100666.23;102373;1118;85201;-69
2021/06/08 01:24:15;;;;;;;9.00;6.70;;;;;;;11.29;69.91;100659.16;102448;1118;75044;-59
2021/06/08 01:26:24;;;;;;;7.80;6.80;;;;;;;11.23;69.98;100655.34;102375;1118;81666;-59
2021/06/08 01:28:34;;;;;;;8.10;6.90;;;;;;;11.20;70.13;100659.27;102411;1118;67235;-60
2021/06/08 01:30:42;;;;;;;8.50;6.40;;;;;;;11.22;69.79;100657.20;102398;1118;67595;-60
2021/06/08 01:32:51;;;;;;;7.40;6.60;;;;;;;11.26;70.00;100665.79;102377;1118;85673;-59
2021/06/08 01:34:59;;;;;;;7.70;6.90;;;;;;;11.24;70.15;100657.00;102450;1118;74159;-65
2021/06/08 01:37:09;;;;;;;8.00;7.30;;;;;;;11.23;69.94;100656.16;102370;1118;81231;-66
2021/06/08 01:39:17;;;;;;;8.80;7.10;;;;;;;11.20;70.44;100656.56;102385;1118;65511;-69
2021/06/08 01:41:26;;;;;;;8.70;7.50;;;;;;;11.11;70.37;100662.23;102386;1118;68998;-68
2021/06/08 01:43:36;;;;;;;9.30;7.40;;;;;;;11.11;70.47;100662.23;102345;1118;85347;-65
2021/06/08 01:45:51;;;;;;;7.90;6.60;;;;;;;11.06;70.53;100659.25;102401;1118;75341;-61
2021/06/08 01:47:58;;;;;;;8.30;6.80;;;;;;;11.08;70.56;100657.19;102395;1118;81538;-60
2021/06/08 01:50:07;;;;;;;13.50;7.50;;;;;;;11.12;70.67;100664.73;102425;1118;65062;-67
2021/06/08 01:52:28;;;;;;;9.20;7.60;;;;;;;11.13;70.71;100665.58;102394;1118;68897;-65
2021/06/08 01:54:44;;;;;;;12.90;7.70;;;;;;;11.14;70.79;100667.27;102361;1118;84566;-68
2021/06/08 01:57:05;;;;;;;9.40;7.70;;;;;;;11.11;70.84;100668.48;102400;1117;73488;-66
2021/06/08 01:59:26;;;;;;;10.80;7.00;;;;;;;11.12;70.89;100669.33;102404;1118;81013;-67
2021/06/08 02:01:48;;;;;;;8.00;6.30;;;;;;;11.07;70.74;100672.57;102361;1118;66957;-68
2021/06/08 02:04:02;;;;;;;8.80;6.80;;;;;;;11.01;70.84;100667.94;102391;1118;69185;-58
2021/06/08 02:06:18;;;;;;;8.60;7.20;;;;;;;11.01;71.06;100673.34;102375;1118;84556;-58
2021/06/08 02:08:37;;;;;;;7.50;6.50;;;;;;;10.96;71.15;100680.32;102384;1118;75000;-59
2021/06/08 02:10:53;;;;;;;9.90;6.90;;;;;;;10.95;71.29;100674.08;102360;1118;81380;-59
2021/06/08 02:13:13;;;;;;;7.70;6.80;;;;;;;10.96;71.16;100683.84;102371;1118;65895;-59
2021/06/08 02:15:29;;;;;;;7.70;6.80;;;;;;;10.90;71.31;100676.50;102383;1117;67531;-60
2021/06/08 02:17:43;;;;;;;8.30;7.20;;;;;;;10.90;71.48;100675.65;102391;1117;84860;-60
2021/06/08 02:19:55;;;;;;;8.70;7.20;;;;;;;10.87;71.51;100687.67;102411;1118;74751;-60
2021/06/08 02:22:09;;;;;;;8.00;7.10;;;;;;;10.90;71.23;100684.60;102396;1118;80823;-58
2021/06/08 02:24:21;;;;;;;8.10;7.30;;;;;;;10.87;71.84;100687.67;102400;1118;67030;-67
2021/06/08 02:26:29;;;;;;;8.10;7.30;;;;;;;10.85;71.41;100680.77;102412;1118;68717;-68
2021/06/08 02:28:40;;;;;;;9.90;6.80;;;;;;;10.84;71.92;100685.33;102396;1118;85457;-61
2021/06/08 02:30:50;;;;;;;7.90;7.10;;;;;;;10.80;71.58;100685.86;102407;1118;74655;-59
2021/06/08 02:32:58;;;;;;;8.40;7.30;;;;;;;10.78;71.82;100690.63;102391;1117;82093;-59
2021/06/08 02:35:07;;;;;;;7.60;6.70;;;;;;;10.82;71.90;100681.14;102378;1118;66287;-68
2021/06/08 02:37:17;;;;;;;8.90;7.20;;;;;;;10.84;71.92;100681.78;102415;1118;68034;-68
2021/06/08 02:39:25;;;;;;;9.80;7.70;;;;;;;10.83;72.19;100686.34;102419;1117;85183;-70
2021/06/08 02:41:33;;;;;;;11.10;7.90;;;;;;;10.77;72.20;100692.48;102406;1118;75268;-68
2021/06/08 02:43:41;;;;;;;8.90;7.30;;;;;;;10.79;72.07;100695.02;102379;1118;81530;-60
2021/06/08 02:45:49;;;;;;;10.40;7.40;;;;;;;10.83;72.31;100688.20;102391;1118;67272;-63
2021/06/08 02:48:01;;;;;;;10.40;7.80;;;;;;;10.81;72.30;100691.10;102414;1118;67628;-60
2021/06/08 02:50:14;;;;;;;10.90;7.90;;;;;;;10.82;72.22;100691.95;102387;1118;85368;-58
2021/06/08 02:52:24;;;;;;;8.50;7.50;;;;;;;10.83;72.28;100694.45;102433;1118;73552;-60
2021/06/08 02:54:32;;;;;;;9.30;8.00;;;;;;;10.86;72.60;100702.20;102428;1118;81214;-58
2021/06/08 02:56:39;;;;;;;8.60;7.20;;;;;;;10.86;72.68;100695.95;102399;1118;69163;-58
2021/06/08 02:58:48;;;;;;;7.70;6.90;;;;;;;10.88;72.66;100694.73;102439;1117;68015;-59
2021/06/08 03:00:56;;;;;;;8.10;7.20;;;;;;;10.90;72.77;100692.71;102398;1118;83769;-58
2021/06/08 03:03:06;;;;;;;9.60;7.30;;;;;;;10.95;72.95;100694.85;102395;1118;75133;-58
2021/06/08 03:05:22;;;;;;;9.60;7.70;;;;;;;10.97;73.01;100701.75;102437;1119;80395;-59
2021/06/08 03:07:32;;;;;;;8.20;7.40;;;;;;;11.02;73.04;100707.44;102376;1118;68565;-58
2021/06/08 03:09:46;;;;;;;12.00;7.90;;;;;;;11.06;73.17;100711.47;102432;1118;68775;-59
2021/06/08 03:11:56;;;;;;;8.80;7.80;;;;;;;11.14;73.03;100710.53;102392;1117;84787;-58
2021/06/08 03:14:05;;;;;;;9.50;7.80;;;;;;;11.23;73.11;100718.36;102441;1118;75263;-59
2021/06/08 03:16:14;;;;;;;8.60;7.50;;;;;;;11.32;73.02;100710.18;102394;1118;81751;-59
2021/06/08 03:18:28;;;;;;;10.60;8.00;;;;;;;11.42;72.89;100711.58;102413;1118;65241;-58
2021/06/08 03:20:42;;;;;;;10.70;7.50;;;;;;;11.52;72.92;100716.69;102398;1118;68706;-66
2021/06/08 03:22:56;;;;;;;10.60;7.90;;;;;;;11.64;73.03;100718.74;102388;1118;85185;-68
2021/06/08 03:25:05;;;;;;;9.80;7.20;;;;;;;11.88;72.96;100708.64;102419;1117;75144;-68
2021/06/08 03:27:14;;;;;;;8.20;7.10;;;;;;;12.33;72.97;100714.56;102403;1118;81023;-65
2021/06/08 03:29:22;;;;;;;9.80;8.80;;;;;;;12.93;72.44;100710.53;102365;1118;66775;-58
2021/06/08 03:31:30;;;;;;;10.00;7.90;;;;;;;13.64;71.72;100711.20;102377;1118;68043;-58
2021/06/08 03:33:38;;;;;;;8.80;8.00;;;;;;;14.59;70.79;100714.64;102374;1118;85145;-66
2021/06/08 03:35:45;;;;;;;9.40;7.70;;;;;;;16.01;69.73;100702.91;102357;1118;75406;-67
2021/06/08 03:37:55;;;;;;;9.10;7.60;;;;;;;17.33;68.45;100708.23;102366;1118;80491;-68
2021/06/08 03:40:09;;;;;;;7.80;7.00;;;;;;;18.55;66.50;100699.77;102385;1118;65656;-59
2021/06/08 03:42:17;;;;;;;8.10;7.20;;;;;;;19.71;64.53;100708.89;102406;1118;69223;-58
2021/06/08 03:44:28;;;;;;;9.90;7.20;;;;;;;20.70;62.56;100706.73;102411;1118;85214;-59
2021/06/08 03:46:36;;;;;;;8.10;6.90;;;;;;;21.47;61.14;100705.81;102381;1118;74784;-58
2021/06/08 03:48:47;;;;;;;7.40;6.70;;;;;;;22.27;59.35;100699.70;102412;1118;82686;-68
2021/06/08 03:50:55;;;;;;;7.80;6.80;;;;;;;22.83;57.72;100704.68;102400;1118;65251;-69
2021/06/08 03:53:06;;;;;;;9.20;6.80;;;;;;;23.48;55.92;100706.30;102409;1118;69859;-67
2021/06/08 03:55:15;;;;;;;8.00;6.40;;;;;;;24.12;53.82;100695.85;102375;1118;84170;-58
2021/06/08 03:57:27;;;;;;;9.60;6.30;;;;;;;24.74;52.86;100697.64;102362;1118;73686;-60
2021/06/08 03:59:36;;;;;;;6.80;5.70;;;;;;;25.25;50.99;100693.77;102416;1118;81465;-67
2021/06/08 04:01:45;;;;;;;6.40;5.80;;;;;;;25.67;49.56;100705.34;102414;1118;65443;-69
2021/06/08 04:03:52;;;;;;;8.40;6.20;;;;;;;25.97;48.13;100700.80;102451;1118;69378;-71
2021/06/08 04:06:01;;;;;;;7.00;6.30;;;;;;;26.21;46.96;100705.41;102421;1118;84325;-69
2021/06/08 04:08:11;;;;;;;9.30;6.30;;;;;;;26.36;45.99;100704.52;102405;1117;74659;-68
2021/06/08 04:10:21;;;;;;;10.40;6.00;;;;;;;26.54;45.47;100700.23;102423;1118;81086;-69
2021/06/08 04:12:29;;;;;;;6.90;5.60;;;;;;;26.89;44.23;100702.80;102290;1118;65699;-66
2021/06/08 04:14:36;;;;;;;12.00;6.20;;;;;;;27.10;43.59;100707.04;102408;1118;68791;-58
2021/06/08 04:16:43;;;;;;;6.50;5.80;;;;;;;27.33;43.13;100706.25;102403;1118;84818;-59
2021/06/08 04:18:52;;;;;;;8.30;5.50;;;;;;;27.47;42.32;100710.02;102412;1118;73362;-69
2021/06/08 04:21:03;;;;;;;6.40;5.40;;;;;;;27.66;41.23;100706.52;102388;1118;81151;-68
2021/06/08 04:23:10;;;;;;;6.30;5.00;;;;;;;28.18;40.03;100703.67;102411;1118;66433;-67
2021/06/08 04:25:20;;;;;;;7.10;5.80;;;;;;;28.38;38.86;100705.31;102362;1118;69920;-58
2021/06/08 04:27:30;;;;;;;7.00;5.80;;;;;;;28.59;38.81;100707.52;102387;1118;85481;-59
2021/06/08 04:29:42;;;;;;;5.80;5.10;;;;;;;28.66;37.87;100694.08;102395;1118;75904;-69
2021/06/08 04:31:50;;;;;;;6.30;5.30;;;;;;;28.76;37.58;100701.42;102377;1118;82183;-67
2021/06/08 04:33:57;;;;;;;8.30;5.30;;;;;;;28.93;37.25;100698.09;102403;1118;65988;-58
2021/06/08 04:36:07;;;;;;;6.80;5.40;;;;;;;29.18;36.58;100692.09;102395;1118;69054;-58
2021/06/08 04:38:17;;;;;;;7.20;5.50;;;;;;;29.58;36.81;100691.38;102397;1118;84908;-59
2021/06/08 04:40:24;;;;;;;5.30;4.80;;;;;;;29.95;35.92;100697.89;102370;1118;74707;-72
2021/06/08 04:42:32;;;;;;;5.90;5.20;;;;;;;30.17;35.55;100697.97;102404;1118;80481;-68
2021/06/08 04:44:41;;;;;;;6.60;5.30;;;;;;;30.68;35.37;100697.67;102397;1118;66285;-58
2021/06/08 04:46:48;;;;;;;5.80;5.20;;;;;;;30.85;35.18;100690.25;102406;1118;69036;-59
2021/06/08 04:48:56;;;;;;;5.50;5.10;;;;;;;30.99;34.05;100689.41;102414;1118;84425;-67
2021/06/08 04:51:06;;;;;;;5.10;4.60;;;;;;;31.30;33.27;100691.08;102425;1118;74348;-67
2021/06/08 04:53:14;;;;;;;5.50;4.40;;;;;;;31.42;33.18;100690.48;102390;1118;81094;-55
2021/06/08 04:55:25;;;;;;;5.30;4.80;;;;;;;31.29;31.92;100694.17;102312;1118;65607;-53
2021/06/08 04:57:33;;;;;;;6.30;5.20;;;;;;;31.73;32.31;100699.67;102427;1118;68635;-54
2021/06/08 04:59:53;;;;;;;5.20;4.50;;;;;;;31.87;31.53;100705.98;102388;1118;84548;-55
2021/06/08 05:02:02;;;;;;;10.00;4.80;;;;;;;32.04;31.50;100694.89;102408;1118;73654;-55
2021/06/08 05:04:14;;;;;;;8.70;4.90;;;;;;;32.18;31.09;100700.34;102402;1118;81039;-59
2021/06/08 05:06:27;;;;;;;8.20;5.10;;;;;;;32.45;30.37;100697.25;102407;1118;66570;-61
2021/06/08 05:08:42;;;;;;;13.70;5.20;;;;;;;32.40;30.44;100697.42;102413;1118;68358;-55
2021/06/08 05:10:55;;;;;;;10.10;5.30;;;;;;;32.54;30.53;100697.30;102395;1118;84553;-55
2021/06/08 05:13:03;;;;;;;15.30;6.20;;;;;;;32.68;30.11;100697.97;102440;1117;74361;-57
2021/06/08 05:15:16;;;;;;;15.40;7.50;;;;;;;33.03;29.56;100699.58;102420;1118;81131;-59
2021/06/08 05:17:26;;;;;;;;;;;;;;;33.06;29.61;100698.95;102392;1118;66910;-60
2021/06/08 05:19:36;;;;;;;16.90;6.90;;;;;;;33.12;29.56;100692.02;102426;1118;68571;-55
2021/06/08 05:21:47;;;;;;;17.00;7.30;;;;;;;33.23;29.42;100687.72;102403;1118;85322;-55
2021/06/08 05:23:56;;;;;;;16.20;7.80;;;;;;;33.23;29.27;100696.12;102431;1118;74299;-59
2021/06/08 05:26:05;;;;;;;20.10;8.00;;;;;;;33.22;28.96;100694.46;102393;1118;81544;-60
2021/06/08 05:28:14;;;;;;;23.60;8.10;;;;;;;33.34;29.02;100698.55;102411;1118;66490;-59
2021/06/08 05:30:26;;;;;;;19.70;6.80;;;;;;;33.72;28.92;100693.83;102353;1118;67589;-53
2021/06/08 05:32:33;;;;;;;9.40;5.60;;;;;;;33.57;28.12;100691.59;102336;1118;84893;-56
2021/06/08 05:34:44;;;;;;;13.40;5.80;;;;;;;33.64;28.30;100695.52;102384;1118;74708;-55
2021/06/08 05:36:53;;;;;;;14.20;6.10;;;;;;;34.00;27.84;100695.00;102361;1118;81150;-61
2021/06/08 05:39:05;;;;;;;11.00;5.10;;;;;;;33.95;27.45;100698.01;102392;1118;66956;-70
2021/06/08 05:41:14;;;;;;;10.90;4.50;;;;;;;34.07;27.55;100697.26;102311;1118;67617;-71
2021/06/08 05:43:26;;;;;;;5.40;4.20;;;;;;;34.06;27.53;100690.85;102399;1118;85088;-70
2021/06/08 05:45:36;;;;;;;6.50;4.30;;;;;;;34.26;28.03;100692.88;102377;1118;76024;-69
2021/06/08 05:47:44;;;;;;;4.60;3.90;;;;;;;34.64;27.86;100691.98;102368;1118;81054;-70
2021/06/08 05:49:51;;;;;;;5.80;4.00;;;;;;;34.51;27.56;100693.84;102395;1118;65941;-70
2021/06/08 05:52:01;;;;;;;4.40;3.80;;;;;;;34.72;27.50;100688.28;102392;1118;67881;-69
2021/06/08 05:54:11;;;;;;;9.50;4.30;;;;;;;34.14;26.90;100689.18;102372;1118;85868;-59
2021/06/08 05:56:23;;;;;;;8.30;4.00;;;;;;;34.68;26.86;100682.52;102410;1118;74421;-59
2021/06/08 05:58:32;;;;;;;7.00;3.50;;;;;;;35.06;27.61;100685.16;102362;1118;81902;-69
2021/06/08 06:00:45;;;;;;;5.50;3.90;;;;;;;35.22;26.43;100690.92;102411;1118;65961;-73
2021/06/08 06:02:55;;;;;;;7.70;3.60;;;;;;;35.18;26.53;100690.82;102397;1118;68033;-73
2021/06/08 06:05:08;;;;;;;8.50;4.30;;;;;;;35.60;26.96;100690.70;102367;1118;85311;-59
2021/06/08 06:07:17;;;;;;;6.40;3.10;;;;;;;35.52;26.13;100683.95;102409;1118;74384;-62
2021/06/08 06:09:25;;;;;;;4.90;4.00;;;;;;;35.33;26.18;100680.88;102387;1118;81587;-71
2021/06/08 06:11:34;;;;;;;10.20;4.70;;;;;;;35.24;26.23;100683.81;102393;1118;65784;-68
2021/06/08 06:13:47;;;;;;;13.00;5.20;;;;;;;35.30;26.02;100679.59;102368;1118;68872;-71
2021/06/08 06:15:56;;;;;;;9.40;4.30;;;;;;;35.61;25.94;100683.89;102411;1118;83280;-70
2021/06/08 06:18:07;;;;;;;8.50;3.60;;;;;;;35.78;25.09;100680.86;102409;1118;74773;-70
2021/06/08 06:20:16;;;;;;;5.70;3.50;;;;;;;35.88;25.51;100691.63;102372;1118;81096;-59
2021/06/08 06:22:23;;;;;;;8.00;4.20;;;;;;;36.24;25.51;100688.82;102383;1118;65553;-60
2021/06/08 06:24:33;;;;;;;4.10;3.70;;;;;;;36.22;25.55;100673.47;102378;1117;68050;-61
2021/06/08 06:26:45;;;;;;;8.40;4.00;;;;;;;36.46;25.08;100682.67;102369;1118;85854;-63
2021/06/08 06:28:53;;;;;;;4.60;4.00;;;;;;;36.90;25.00;100677.97;102399;1118;75119;-68
2021/06/08 06:31:01;;;;;;;4.20;3.20;;;;;;;36.91;25.00;100667.53;102397;1118;81829;-74
2021/06/08 06:33:08;;;;;;;5.00;3.30;;;;;;;37.07;24.62;100672.05;102396;1118;66409;-69
2021/06/08 06:35:17;;;;;;;4.50;2.80;;;;;;;37.12;24.61;100679.41;102389;1118;67569;-70
2021/06/08 06:37:29;;;;;;;3.40;3.00;;;;;;;37.08;24.78;100676.52;102424;1118;85078;-71
2021/06/08 06:39:39;;;;;;;3.50;3.20;;;;;;;36.52;24.57;100680.47;102373;1118;74568;-70
2021/06/08 06:41:54;;;;;;;4.10;3.20;;;;;;;36.96;24.53;100675.75;102386;1118;81213;-70
2021/06/08 06:44:05;;;;;;;5.00;3.30;;;;;;;36.93;24.58;100676.43;102370;1117;66421;-58
2021/06/08 06:46:12;;;;;;;4.70;3.40;;;;;;;37.37;24.97;100680.91;102440;1118;69514;-59
2021/06/08 06:48:21;;;;;;;4.60;3.80;;;;;;;37.40;24.36;100679.36;102387;1118;85450;-59
2021/06/08 06:50:30;;;;;;;7.00;6.30;;;;;;;37.61;24.71;100675.13;102407;1118;74103;-71
2021/06/08 06:52:43;;;;;;;6.80;3.70;;;;;;;37.64;24.18;100679.22;102407;1118;81356;-71
2021/06/08 06:54:51;;;;;;;4.90;3.50;;;;;;;37.50;24.30;100684.48;102387;1118;66202;-70
2021/06/08 06:57:00;;;;;;;8.40;3.70;;;;;;;36.81;23.86;100682.14;102414;1118;69289;-72
2021/06/08 06:59:08;;;;;;;4.30;3.20;;;;;;;36.65;24.28;100677.25;102421;1118;85435;-70
2021/06/08 07:01:16;;;;;;;10.00;3.90;;;;;;;36.76;24.77;100676.73;102391;1118;74934;-70
2021/06/08 07:03:30;;;;;;;5.00;3.40;;;;;;;37.07;24.53;100682.50;102391;1118;80588;-68
2021/06/08 07:05:38;;;;;;;6.80;4.00;;;;;;;37.43;24.31;100682.31;102409;1118;67841;-58
2021/06/08 07:07:47;;;;;;;4.10;3.70;;;;;;;37.51;23.84;100675.68;102404;1118;69134;-59
2021/06/08 07:09:55;;;;;;;4.20;3.40;;;;;;;37.55;24.19;100670.14;102416;1117;85027;-69
2021/06/08 07:12:03;;;;;;;5.10;3.20;;;;;;;37.83;24.26;100674.47;102414;1117;75417;-70
2021/06/08 07:14:10;;;;;;;4.80;3.10;;;;;;;37.93;23.72;100675.14;102421;1118;81051;-69
2021/06/08 07:16:20;;;;;;;3.60;3.10;;;;;;;38.13;23.81;100676.84;102394;1117;66536;-69
2021/06/08 07:18:31;;;;;;;4.80;3.00;;;;;;;38.33;23.84;100672.88;102400;1118;68489;-65
2021/06/08 07:20:42;;;;;;;5.80;3.20;;;;;;;38.39;23.44;100677.05;102387;1118;85648;-69
2021/06/08 07:22:51;;;;;;;4.70;3.20;;;;;;;38.48;23.49;100676.84;102391;1118;75769;-69
2021/06/08 07:25:03;;;;;;;5.10;3.20;;;;;;;38.52;23.37;100678.55;102408;1118;82087;-68
2021/06/08 07:27:13;;;;;;;4.30;3.30;;;;;;;38.20;22.89;100676.99;102366;1118;67140;-71
2021/06/08 07:29:24;;;;;;;5.00;3.10;;;;;;;38.15;23.12;100674.46;102367;1118;68457;-58
2021/06/08 07:31:45;;;;;;;4.40;3.00;;;;;;;37.78;23.05;100674.76;102374;1118;85594;-59
2021/06/08 07:34:03;;;;;;;6.30;3.40;;;;;;;37.74;23.90;100676.66;102389;1118;73214;-70
2021/06/08 07:36:20;;;;;;;4.40;3.20;;;;;;;37.80;23.89;100683.66;102414;1118;81728;-68
2021/06/08 07:38:37;;;;;;;6.10;3.10;;;;;;;37.70;23.78;100674.95;102399;1118;65236;-67
2021/06/08 07:40:55;;;;;;;5.60;3.40;;;;;;;37.24;23.90;100683.00;102429;1118;69455;-69
2021/06/08 07:43:05;;;;;;;5.50;3.50;;;;;;;37.65;23.99;100686.50;102398;1118;84833;-71
2021/06/08 07:45:19;;;;;;;4.40;3.00;;;;;;;37.64;24.31;100682.03;102389;1118;75370;-58
2021/06/08 07:47:31;;;;;;;4.70;3.20;;;;;;;37.46;24.24;100689.23;102393;1118;80556;-59
2021/06/08 07:49:39;;;;;;;6.40;2.90;;;;;;;37.59;23.82;100685.95;102376;1118;66627;-59
2021/06/08 07:51:49;;;;;;;4.90;2.90;;;;;;;37.23;23.50;100688.98;102381;1118;68968;-58
2021/06/08 07:53:58;;;;;;;10.80;3.00;;;;;;;36.91;23.72;100690.06;102389;1118;85748;-66
2021/06/08 07:56:10;;;;;;;4.00;3.00;;;;;;;36.83;24.09;100688.22;102397;1118;73593;-67
2021/06/08 07:58:22;;;;;;;3.60;2.80;;;;;;;36.76;24.62;100682.37;102419;1117;81247;-66
2021/06/08 08:00:30;;;;;;;5.10;2.70;;;;;;;36.60;24.73;100685.95;102416;1118;66209;-59
2021/06/08 08:02:41;;;;;;;5.40;3.20;;;;;;;36.67;24.67;100683.34;102409;1118;68186;-59
2021/06/08 08:04:51;;;;;;;4.40;3.00;;;;;;;36.64;24.79;100689.71;102411;1118;85300;-66
2021/06/08 08:06:58;;;;;;;7.70;2.90;;;;;;;36.75;24.44;100683.56;102409;1117;74745;-67
2021/06/08 08:09:06;;;;;;;4.70;2.70;;;;;;;36.96;24.13;100687.02;102419;1118;79942;-66
2021/06/08 08:11:16;;;;;;;4.90;3.00;;;;;;;37.22;24.22;100688.16;102393;1118;66293;-67
2021/06/08 08:13:27;;;;;;;4.40;2.80;;;;;;;36.81;24.10;100690.59;102386;1118;69395;-67
2021/06/08 08:15:36;;;;;;;6.20;2.70;;;;;;;36.37;24.40;100693.25;102404;1117;85000;-67
2021/06/08 08:17:48;;;;;;;4.50;2.70;;;;;;;36.07;24.16;100689.07;102400;1118;75096;-67
2021/06/08 08:19:55;;;;;;;4.70;3.10;;;;;;;36.04;24.76;100689.80;102422;1118;79682;-59
2021/06/08 08:22:03;;;;;;;6.00;2.50;;;;;;;36.41;25.02;100687.73;102382;1118;66293;-57
2021/06/08 08:24:11;;;;;;;3.50;2.30;;;;;;;36.29;24.82;100687.78;102425;1118;69013;-66
2021/06/08 08:26:21;;;;;;;3.30;2.30;;;;;;;36.39;24.75;100690.92;102417;1118;85418;-67
2021/06/08 08:28:28;;;;;;;5.00;2.70;;;;;;;36.51;24.63;100685.27;102373;1118;74978;-64
2021/06/08 08:30:37;;;;;;;5.00;3.10;;;;;;;36.20;24.04;100687.08;102372;1118;80942;-66
2021/06/08 08:32:44;;;;;;;2.80;2.50;;;;;;;35.68;25.22;100682.16;102382;1118;67998;-69
2021/06/08 08:34:51;;;;;;;4.70;2.80;;;;;;;35.79;25.34;100679.70;102363;1118;68454;-66
2021/06/08 08:36:59;;;;;;;4.40;2.50;;;;;;;35.94;25.00;100684.60;102401;1118;84910;-67
2021/06/08 08:39:09;;;;;;;4.10;2.40;;;;;;;35.92;24.40;100686.95;102395;1118;73614;-66
2021/06/08 08:41:20;;;;;;;4.90;2.70;;;;;;;35.68;25.08;100681.33;102410;1118;80957;-69
2021/06/08 08:43:30;;;;;;;3.10;2.70;;;;;;;35.78;24.72;100678.05;102394;1118;65455;-73
2021/06/08 08:45:37;;;;;;;6.70;2.70;;;;;;;35.94;25.16;100684.60;102417;1118;67567;-68
2021/06/08 08:47:45;;;;;;;3.90;2.80;;;;;;;35.84;24.72;100679.46;102380;1118;85369;-66
2021/06/08 08:49:52;;;;;;;5.20;2.90;;;;;;;35.89;25.15;100687.66;102383;1118;73772;-65
2021/06/08 08:52:05;;;;;;;4.40;2.80;;;;;;;36.63;25.92;100685.25;102370;1118;81425;-67
2021/06/08 08:54:18;;;;;;;4.10;3.10;;;;;;;36.41;25.29;100687.73;102417;1118;67181;-67
2021/06/08 08:56:28;;;;;;;3.00;2.60;;;;;;;36.72;24.89;100675.83;102387;1118;68757;-69
2021/06/08 08:58:36;;;;;;;4.20;2.90;;;;;;;36.66;24.74;100683.70;102418;1118;84252;-69
2021/06/08 09:00:44;;;;;;;5.00;3.00;;;;;;;36.55;24.60;100689.03;102435;1118;74626;-68
2021/06/08 09:02:54;;;;;;;4.60;2.60;;;;;;;36.53;25.17;100680.13;102389;1118;81127;-69
2021/06/08 09:05:03;;;;;;;4.50;3.10;;;;;;;36.25;25.25;100669.95;102375;1118;65685;-61
2021/06/08 09:07:13;;;;;;;3.80;2.50;;;;;;;36.86;25.71;100673.42;102419;1118;69287;-59
2021/06/08 09:09:21;;;;;;;5.70;2.50;;;;;;;36.36;25.09;100677.55;102362;1118;85607;-61
2021/06/08 09:11:31;;;;;;;6.10;3.10;;;;;;;34.72;25.78;100677.05;102390;1118;74687;-59
2021/06/08 09:13:39;;;;;;;4.60;2.90;;;;;;;33.82;26.70;100677.44;102360;1118;81942;-61
2021/06/08 09:15:46;;;;;;;4.10;2.90;;;;;;;33.53;27.04;100673.77;102407;1117;66002;-63
2021/06/08 09:17:58;;;;;;;6.20;3.30;;;;;;;33.59;28.11;100672.45;102406;1118;67727;-63
2021/06/08 09:20:09;;;;;;;5.10;2.70;;;;;;;33.89;28.05;100664.88;102394;1117;84846;-61
2021/06/08 09:22:17;;;;;;;3.50;2.70;;;;;;;33.70;28.25;100668.13;102420;1118;74227;-61
2021/06/08 09:24:27;;;;;;;3.90;3.40;;;;;;;33.44;27.78;100664.56;102389;1118;80344;-61
2021/06/08 09:26:56;;;;;;;5.30;2.70;;;;;;;32.92;28.51;100675.88;102419;1117;65822;-64
2021/06/08 09:29:03;;;;;;;4.40;3.00;;;;;;;32.64;29.20;100680.17;102443;1118;69147;-68
2021/06/08 09:31:16;;;;;;;4.00;2.80;;;;;;;32.37;29.37;100674.87;102408;1118;83497;-66
2021/06/08 09:33:25;;;;;;;4.30;3.00;;;;;;;31.78;30.08;100674.38;102400;1117;74029;-66
2021/06/08 09:35:34;;;;;;;6.90;3.40;;;;;;;31.19;30.43;100672.12;102399;1118;81757;-66
2021/06/08 09:37:43;;;;;;;5.20;3.00;;;;;;;30.73;30.66;100670.48;102382;1118;65980;-64
2021/06/08 09:39:51;;;;;;;4.50;3.00;;;;;;;30.43;30.83;100668.43;102417;1118;69504;-67
2021/06/08 09:42:15;;;;;;;4.90;3.00;;;;;;;30.06;31.89;100663.09;102385;1118;84400;-70
2021/06/08 09:44:23;;;;;;;4.10;2.60;;;;;;;29.96;31.72;100660.55;102434;1117;73913;-60
2021/06/08 09:46:43;;;;;;;3.90;2.80;;;;;;;29.75;33.31;100666.50;102387;1118;81745;-59
2021/06/08 09:48:56;;;;;;;5.70;3.90;;;;;;;29.47;32.86;100670.44;102432;1118;66555;-64
2021/06/08 09:51:04;;;;;;;6.30;3.30;;;;;;;29.38;33.57;100661.14;102413;1118;68619;-67
2021/06/08 09:53:26;;;;;;;4.00;2.90;;;;;;;29.81;35.19;100670.88;102405;1118;85490;-65
2021/06/08 09:55:52;;;;;;;5.10;2.80;;;;;;;30.08;34.32;100663.64;102423;1118;75201;-59
2021/06/08 09:58:13;;;;;;;5.30;3.20;;;;;;;30.12;33.97;100665.47;102383;1118;80883;-59